sensor_id;sensor_type;location;lat;lon;timestamp;pressure;altitude;pressure_sealevel;temperature;humidity
70555;BME280;58104;52.744;15.242;2022-10-01T00:01:36;100465.96;;;19.72;57.74
70555;BME280;58104;52.744;15.242;2022-10-01T00:04:01;100462.32;;;19.83;57.86
70555;BME280;58104;52.744;15.242;2022-10-01T00:06:27;100462.63;;;19.90;57.40
70555;BME280;58104;52.744;15.242;2022-10-01T00:08:52;100462.18;;;19.80;57.35
70555;BME280;58104;52.744;15.242;2022-10-01T00:11:19;100463.68;;;19.79;56.94
70555;BME280;58104;52.744;15.242;2022-10-01T00:13:43;100461.04;;;19.76;57.85
70555;BME280;58104;52.744;15.242;2022-10-01T00:16:10;100458.15;;;19.82;57.82
70555;BME280;58104;52.744;15.242;2022-10-01T00:18:35;100459.74;;;19.76;58.28
70555;BME280;58104;52.744;15.242;2022-10-01T00:20:59;100461.27;;;19.88;58.33
70555;BME280;58104;52.744;15.242;2022-10-01T00:23:24;100455.70;;;19.75;57.65
70555;BME280;58104;52.744;15.242;2022-10-01T00:25:50;100450.21;;;19.70;58.33
70555;BME280;58104;52.744;15.242;2022-10-01T00:28:14;100447.63;;;19.71;58.33
70555;BME280;58104;52.744;15.242;2022-10-01T00:30:45;100448.23;;;19.73;58.84
70555;BME280;58104;52.744;15.242;2022-10-01T00:33:05;100440.12;;;19.72;59.03
70555;BME280;58104;52.744;15.242;2022-10-01T00:35:30;100434.84;;;19.72;58.42
70555;BME280;58104;52.744;15.242;2022-10-01T00:37:56;100431.79;;;19.76;57.90
70555;BME280;58104;52.744;15.242;2022-10-01T00:40:22;100427.32;;;19.76;58.55
70555;BME280;58104;52.744;15.242;2022-10-01T00:42:48;100424.65;;;19.73;58.18
70555;BME280;58104;52.744;15.242;2022-10-01T00:45:15;100425.18;;;19.70;58.74
70555;BME280;58104;52.744;15.242;2022-10-01T00:47:41;100423.44;;;19.69;58.30
70555;BME280;58104;52.744;15.242;2022-10-01T00:50:09;100423.20;;;19.74;59.11
70555;BME280;58104;52.744;15.242;2022-10-01T00:52:30;100421.24;;;19.65;58.73
70555;BME280;58104;52.744;15.242;2022-10-01T00:54:57;100420.84;;;19.68;59.05
70555;BME280;58104;52.744;15.242;2022-10-01T00:57:21;100418.75;;;19.67;58.80
70555;BME280;58104;52.744;15.242;2022-10-01T00:59:46;100416.80;;;19.68;59.15
70555;BME280;58104;52.744;15.242;2022-10-01T01:02:11;100411.64;;;19.62;59.74
70555;BME280;58104;52.744;15.242;2022-10-01T01:04:36;100414.29;;;19.69;58.72
70555;BME280;58104;52.744;15.242;2022-10-01T01:07:02;100409.02;;;19.67;58.54
70555;BME280;58104;52.744;15.242;2022-10-01T01:09:28;100410.83;;;19.67;58.93
70555;BME280;58104;52.744;15.242;2022-10-01T01:11:56;100406.49;;;19.63;59.68
70555;BME280;58104;52.744;15.242;2022-10-01T01:14:21;100404.61;;;19.64;59.01
70555;BME280;58104;52.744;15.242;2022-10-01T01:16:46;100408.01;;;19.59;58.84
70555;BME280;58104;52.744;15.242;2022-10-01T01:19:16;100401.97;;;19.61;58.81
70555;BME280;58104;52.744;15.242;2022-10-01T01:21:34;100399.66;;;19.56;59.58
70555;BME280;58104;52.744;15.242;2022-10-01T01:26:31;100393.48;;;19.54;58.85
70555;BME280;58104;52.744;15.242;2022-10-01T01:28:50;100388.31;;;19.54;59.16
70555;BME280;58104;52.744;15.242;2022-10-01T01:31:16;100385.63;;;19.55;59.43
70555;BME280;58104;52.744;15.242;2022-10-01T01:33:42;100386.24;;;19.53;59.58
70555;BME280;58104;52.744;15.242;2022-10-01T01:36:08;100384.22;;;19.58;60.34
70555;BME280;58104;52.744;15.242;2022-10-01T01:38:34;100385.56;;;19.50;59.70
70555;BME280;58104;52.744;15.242;2022-10-01T01:40:58;100389.33;;;19.59;59.67
70555;BME280;58104;52.744;15.242;2022-10-01T01:43:25;100387.59;;;19.51;58.80
70555;BME280;58104;52.744;15.242;2022-10-01T01:45:47;100387.51;;;19.54;60.15
70555;BME280;58104;52.744;15.242;2022-10-01T01:48:12;100385.97;;;19.49;60.28
70555;BME280;58104;52.744;15.242;2022-10-01T01:50:43;100382.85;;;19.49;59.62
70555;BME280;58104;52.744;15.242;2022-10-01T01:53:02;100374.84;;;19.53;59.79
70555;BME280;58104;52.744;15.242;2022-10-01T01:55:28;100374.63;;;19.50;60.70
70555;BME280;58104;52.744;15.242;2022-10-01T01:57:53;100372.49;;;19.52;60.18
70555;BME280;58104;52.744;15.242;2022-10-01T02:00:18;100378.02;;;19.51;60.28
70555;BME280;58104;52.744;15.242;2022-10-01T02:02:49;100381.71;;;19.53;60.76
70555;BME280;58104;52.744;15.242;2022-10-01T02:05:12;100378.82;;;19.50;59.44
70555;BME280;58104;52.744;15.242;2022-10-01T02:10:08;100377.50;;;19.47;60.74
70555;BME280;58104;52.744;15.242;2022-10-01T02:12:35;100375.67;;;19.46;59.49
70555;BME280;58104;52.744;15.242;2022-10-01T02:14:55;100374.23;;;19.50;59.71
70555;BME280;58104;52.744;15.242;2022-10-01T02:17:23;100373.85;;;19.49;60.26
70555;BME280;58104;52.744;15.242;2022-10-01T02:19:46;100371.83;;;19.47;59.98
70555;BME280;58104;52.744;15.242;2022-10-01T02:22:11;100368.08;;;19.39;59.72
70555;BME280;58104;52.744;15.242;2022-10-01T02:24:36;100369.12;;;19.40;59.54
70555;BME280;58104;52.744;15.242;2022-10-01T02:26:59;100362.90;;;19.36;60.57
70555;BME280;58104;52.744;15.242;2022-10-01T02:29:24;100360.02;;;19.33;61.36
70555;BME280;58104;52.744;15.242;2022-10-01T02:31:52;100362.50;;;19.40;59.83
70555;BME280;58104;52.744;15.242;2022-10-01T02:34:14;100356.12;;;19.31;60.26
70555;BME280;58104;52.744;15.242;2022-10-01T02:36:39;100362.20;;;19.27;59.98
70555;BME280;58104;52.744;15.242;2022-10-01T02:39:05;100359.03;;;19.31;60.63
70555;BME280;58104;52.744;15.242;2022-10-01T02:41:35;100358.21;;;19.31;60.95
70555;BME280;58104;52.744;15.242;2022-10-01T02:43:58;100355.38;;;19.28;60.71
70555;BME280;58104;52.744;15.242;2022-10-01T02:46:26;100351.72;;;19.32;60.19
70555;BME280;58104;52.744;15.242;2022-10-01T02:48:47;100355.71;;;19.35;60.11
70555;BME280;58104;52.744;15.242;2022-10-01T02:51:23;100357.03;;;19.40;60.40
70555;BME280;58104;52.744;15.242;2022-10-01T02:53:42;100350.72;;;19.42;59.97
70555;BME280;58104;52.744;15.242;2022-10-01T02:56:03;100349.57;;;19.38;60.47
70555;BME280;58104;52.744;15.242;2022-10-01T02:58:28;100346.74;;;19.34;61.21
70555;BME280;58104;52.744;15.242;2022-10-01T03:00:53;100345.14;;;19.32;60.97
70555;BME280;58104;52.744;15.242;2022-10-01T03:03:19;100347.61;;;19.34;60.66
70555;BME280;58104;52.744;15.242;2022-10-01T03:05:45;100346.13;;;19.38;60.52
70555;BME280;58104;52.744;15.242;2022-10-01T03:08:10;100345.32;;;19.31;60.27
70555;BME280;58104;52.744;15.242;2022-10-01T03:10:35;100341.89;;;19.43;59.83
70555;BME280;58104;52.744;15.242;2022-10-01T03:13:01;100342.58;;;19.35;59.45
70555;BME280;58104;52.744;15.242;2022-10-01T03:15:27;100336.85;;;19.40;61.12
70555;BME280;58104;52.744;15.242;2022-10-01T03:17:52;100334.27;;;19.43;60.36
70555;BME280;58104;52.744;15.242;2022-10-01T03:20:17;100329.72;;;19.32;60.38
70555;BME280;58104;52.744;15.242;2022-10-01T03:22:44;100328.74;;;19.40;60.04
70555;BME280;58104;52.744;15.242;2022-10-01T03:25:08;100326.71;;;19.30;60.20
70555;BME280;58104;52.744;15.242;2022-10-01T03:27:33;100323.44;;;19.34;60.59
70555;BME280;58104;52.744;15.242;2022-10-01T03:29:58;100325.26;;;19.36;61.26
70555;BME280;58104;52.744;15.242;2022-10-01T03:32:23;100323.11;;;19.22;59.77
70555;BME280;58104;52.744;15.242;2022-10-01T03:34:49;100318.59;;;19.33;61.01
70555;BME280;58104;52.744;15.242;2022-10-01T03:37:15;100314.17;;;19.31;60.05
70555;BME280;58104;52.744;15.242;2022-10-01T03:39:40;100317.31;;;19.33;60.26
70555;BME280;58104;52.744;15.242;2022-10-01T03:42:06;100322.60;;;19.33;59.29
70555;BME280;58104;52.744;15.242;2022-10-01T03:44:31;100323.31;;;19.26;60.13
70555;BME280;58104;52.744;15.242;2022-10-01T03:46:56;100325.19;;;19.32;59.68
70555;BME280;58104;52.744;15.242;2022-10-01T03:49:22;100327.83;;;19.31;60.50
70555;BME280;58104;52.744;15.242;2022-10-01T03:51:47;100329.66;;;19.26;60.09
70555;BME280;58104;52.744;15.242;2022-10-01T03:54:13;100327.01;;;19.11;60.61
70555;BME280;58104;52.744;15.242;2022-10-01T03:56:38;100327.83;;;19.14;60.31
70555;BME280;58104;52.744;15.242;2022-10-01T03:59:04;100330.02;;;19.06;60.90
70555;BME280;58104;52.744;15.242;2022-10-01T04:01:29;100330.34;;;19.05;61.11
70555;BME280;58104;52.744;15.242;2022-10-01T04:03:55;100334.21;;;19.11;60.84
70555;BME280;58104;52.744;15.242;2022-10-01T04:06:21;100331.54;;;19.04;60.62
70555;BME280;58104;52.744;15.242;2022-10-01T04:08:46;100327.37;;;19.05;60.19
70555;BME280;58104;52.744;15.242;2022-10-01T04:11:12;100327.40;;;19.12;60.38
70555;BME280;58104;52.744;15.242;2022-10-01T04:13:37;100322.60;;;19.08;61.54
70555;BME280;58104;52.744;15.242;2022-10-01T04:16:04;100316.54;;;19.05;62.06
70555;BME280;58104;52.744;15.242;2022-10-01T04:18:28;100311.11;;;19.05;61.55
70555;BME280;58104;52.744;15.242;2022-10-01T04:20:54;100311.73;;;19.08;60.86
70555;BME280;58104;52.744;15.242;2022-10-01T04:23:20;100309.61;;;18.89;60.90
70555;BME280;58104;52.744;15.242;2022-10-01T04:25:45;100307.88;;;19.01;61.20
70555;BME280;58104;52.744;15.242;2022-10-01T04:28:12;100309.61;;;19.06;60.84
70555;BME280;58104;52.744;15.242;2022-10-01T04:30:38;100310.60;;;19.02;61.55
70555;BME280;58104;52.744;15.242;2022-10-01T04:33:02;100310.71;;;18.99;60.61
70555;BME280;58104;52.744;15.242;2022-10-01T04:35:27;100311.69;;;19.09;60.14
70555;BME280;58104;52.744;15.242;2022-10-01T04:37:56;100314.47;;;19.05;61.33
70555;BME280;58104;52.744;15.242;2022-10-01T04:40:17;100313.99;;;19.01;61.45
70555;BME280;58104;52.744;15.242;2022-10-01T04:42:43;100320.03;;;18.96;60.92
70555;BME280;58104;52.744;15.242;2022-10-01T04:45:10;100316.05;;;18.92;61.61
70555;BME280;58104;52.744;15.242;2022-10-01T04:47:33;100322.75;;;18.83;60.93
70555;BME280;58104;52.744;15.242;2022-10-01T04:49:58;100326.13;;;18.83;62.43
70555;BME280;58104;52.744;15.242;2022-10-01T04:52:23;100324.55;;;18.87;62.27
70555;BME280;58104;52.744;15.242;2022-10-01T04:54:49;100323.26;;;18.89;62.44
70555;BME280;58104;52.744;15.242;2022-10-01T04:57:14;100320.30;;;18.72;61.44
70555;BME280;58104;52.744;15.242;2022-10-01T04:59:39;100320.75;;;18.90;61.36
70555;BME280;58104;52.744;15.242;2022-10-01T05:02:04;100317.39;;;18.77;60.95
70555;BME280;58104;52.744;15.242;2022-10-01T05:04:29;100318.30;;;18.87;60.99
70555;BME280;58104;52.744;15.242;2022-10-01T05:06:54;100317.94;;;18.84;61.20
70555;BME280;58104;52.744;15.242;2022-10-01T05:09:20;100321.27;;;18.98;62.14
70555;BME280;58104;52.744;15.242;2022-10-01T05:11:45;100320.94;;;18.89;61.83
70555;BME280;58104;52.744;15.242;2022-10-01T05:14:11;100315.14;;;18.86;62.09
70555;BME280;58104;52.744;15.242;2022-10-01T05:16:36;100317.80;;;18.93;62.49
70555;BME280;58104;52.744;15.242;2022-10-01T05:19:01;100316.02;;;18.98;62.41
70555;BME280;58104;52.744;15.242;2022-10-01T05:21:27;100312.21;;;19.02;61.53
70555;BME280;58104;52.744;15.242;2022-10-01T05:23:53;100310.41;;;18.74;62.58
70555;BME280;58104;52.744;15.242;2022-10-01T05:26:19;100307.97;;;18.87;62.44
70555;BME280;58104;52.744;15.242;2022-10-01T05:28:44;100309.94;;;18.98;62.20
70555;BME280;58104;52.744;15.242;2022-10-01T05:31:10;100305.42;;;19.06;61.56
70555;BME280;58104;52.744;15.242;2022-10-01T05:33:35;100303.99;;;19.16;62.09
70555;BME280;58104;52.744;15.242;2022-10-01T05:36:01;100302.87;;;19.09;62.71
70555;BME280;58104;52.744;15.242;2022-10-01T05:38:25;100299.55;;;19.11;61.96
70555;BME280;58104;52.744;15.242;2022-10-01T05:40:51;100297.98;;;19.24;62.60
70555;BME280;58104;52.744;15.242;2022-10-01T05:43:16;100296.12;;;19.13;61.66
70555;BME280;58104;52.744;15.242;2022-10-01T05:45:41;100302.10;;;19.14;61.69
70555;BME280;58104;52.744;15.242;2022-10-01T05:48:08;100299.14;;;19.27;62.36
70555;BME280;58104;52.744;15.242;2022-10-01T05:50:35;100296.81;;;19.27;62.84
70555;BME280;58104;52.744;15.242;2022-10-01T05:52:59;100287.43;;;19.22;62.02
70555;BME280;58104;52.744;15.242;2022-10-01T05:55:24;100283.64;;;19.24;61.40
70555;BME280;58104;52.744;15.242;2022-10-01T05:57:54;100284.96;;;19.26;63.30
70555;BME280;58104;52.744;15.242;2022-10-01T06:00:15;100280.67;;;19.30;61.94
70555;BME280;58104;52.744;15.242;2022-10-01T06:02:40;100284.93;;;19.36;62.32
70555;BME280;58104;52.744;15.242;2022-10-01T06:05:06;100277.21;;;19.32;62.01
70555;BME280;58104;52.744;15.242;2022-10-01T06:07:31;100276.77;;;19.30;62.69
70555;BME280;58104;52.744;15.242;2022-10-01T06:09:57;100279.10;;;19.31;62.04
70555;BME280;58104;52.744;15.242;2022-10-01T06:12:22;100275.05;;;19.39;62.46
70555;BME280;58104;52.744;15.242;2022-10-01T06:14:48;100275.31;;;19.41;61.18
70555;BME280;58104;52.744;15.242;2022-10-01T06:17:14;100267.95;;;19.35;61.75
70555;BME280;58104;52.744;15.242;2022-10-01T06:19:39;100264.51;;;19.40;61.95
70555;BME280;58104;52.744;15.242;2022-10-01T06:22:05;100263.14;;;19.34;62.08
70555;BME280;58104;52.744;15.242;2022-10-01T06:24:30;100262.80;;;19.22;62.00
70555;BME280;58104;52.744;15.242;2022-10-01T06:26:55;100254.91;;;19.26;62.57
70555;BME280;58104;52.744;15.242;2022-10-01T06:29:21;100252.75;;;19.41;62.48
70555;BME280;58104;52.744;15.242;2022-10-01T06:31:46;100256.91;;;19.34;61.59
70555;BME280;58104;52.744;15.242;2022-10-01T06:34:11;100251.76;;;19.38;62.38
70555;BME280;58104;52.744;15.242;2022-10-01T06:36:36;100250.10;;;19.46;60.91
70555;BME280;58104;52.744;15.242;2022-10-01T06:39:01;100244.58;;;19.48;62.53
70555;BME280;58104;52.744;15.242;2022-10-01T06:41:27;100241.10;;;19.53;62.02
70555;BME280;58104;52.744;15.242;2022-10-01T06:43:53;100235.27;;;19.53;61.90
70555;BME280;58104;52.744;15.242;2022-10-01T06:46:18;100232.15;;;19.61;61.99
70555;BME280;58104;52.744;15.242;2022-10-01T06:48:43;100233.26;;;19.69;62.06
70555;BME280;58104;52.744;15.242;2022-10-01T06:51:09;100220.37;;;19.67;61.62
70555;BME280;58104;52.744;15.242;2022-10-01T06:53:34;100217.65;;;19.69;61.75
70555;BME280;58104;52.744;15.242;2022-10-01T06:56:04;100214.17;;;19.67;61.89
70555;BME280;58104;52.744;15.242;2022-10-01T06:58:25;100213.77;;;19.66;61.26
70555;BME280;58104;52.744;15.242;2022-10-01T07:00:56;100213.54;;;19.61;61.98
70555;BME280;58104;52.744;15.242;2022-10-01T07:03:18;100209.92;;;19.48;60.99
70555;BME280;58104;52.744;15.242;2022-10-01T07:05:42;100210.31;;;18.39;56.55
70555;BME280;58104;52.744;15.242;2022-10-01T07:08:07;100207.67;;;18.14;56.36
70555;BME280;58104;52.744;15.242;2022-10-01T07:10:32;100203.09;;;17.69;56.31
70555;BME280;58104;52.744;15.242;2022-10-01T07:13:06;100202.91;;;17.53;57.65
70555;BME280;58104;52.744;15.242;2022-10-01T07:15:23;100195.81;;;17.28;56.43
70555;BME280;58104;52.744;15.242;2022-10-01T07:17:50;100193.24;;;17.17;55.95
70555;BME280;58104;52.744;15.242;2022-10-01T07:20:15;100190.50;;;17.07;55.71
70555;BME280;58104;52.744;15.242;2022-10-01T07:22:39;100193.78;;;17.28;56.16
70555;BME280;58104;52.744;15.242;2022-10-01T07:25:06;100188.15;;;17.55;54.90
70555;BME280;58104;52.744;15.242;2022-10-01T07:27:30;100183.89;;;17.83;54.84
70555;BME280;58104;52.744;15.242;2022-10-01T07:29:55;100186.09;;;17.96;51.43
70555;BME280;58104;52.744;15.242;2022-10-01T07:32:21;100181.27;;;18.17;52.71
70555;BME280;58104;52.744;15.242;2022-10-01T07:34:46;100176.34;;;18.05;50.81
70555;BME280;58104;52.744;15.242;2022-10-01T07:37:11;100174.18;;;18.29;51.70
70555;BME280;58104;52.744;15.242;2022-10-01T07:39:36;100169.17;;;18.15;51.21
70555;BME280;58104;52.744;15.242;2022-10-01T07:42:02;100172.22;;;18.35;51.52
70555;BME280;58104;52.744;15.242;2022-10-01T07:44:28;100168.13;;;18.30;50.03
70555;BME280;58104;52.744;15.242;2022-10-01T07:46:53;100165.84;;;18.30;50.09
70555;BME280;58104;52.744;15.242;2022-10-01T07:49:19;100167.27;;;18.20;50.82
70555;BME280;58104;52.744;15.242;2022-10-01T07:51:50;100165.28;;;18.20;50.41
70555;BME280;58104;52.744;15.242;2022-10-01T07:54:09;100164.80;;;18.20;50.01
70555;BME280;58104;52.744;15.242;2022-10-01T07:56:34;100161.05;;;17.99;51.59
70555;BME280;58104;52.744;15.242;2022-10-01T07:58:59;100153.48;;;18.07;50.56
70555;BME280;58104;52.744;15.242;2022-10-01T08:01:26;100151.87;;;18.11;50.37
70555;BME280;58104;52.744;15.242;2022-10-01T08:03:51;100146.32;;;18.28;50.64
70555;BME280;58104;52.744;15.242;2022-10-01T08:06:15;100141.92;;;18.40;48.98
70555;BME280;58104;52.744;15.242;2022-10-01T08:08:41;100144.90;;;18.19;49.88
70555;BME280;58104;52.744;15.242;2022-10-01T08:11:06;100140.76;;;18.15;49.56
70555;BME280;58104;52.744;15.242;2022-10-01T08:13:32;100130.40;;;18.20;50.58
70555;BME280;58104;52.744;15.242;2022-10-01T08:15:57;100131.60;;;18.14;50.74
70555;BME280;58104;52.744;15.242;2022-10-01T08:18:23;100131.83;;;18.20;50.79
70555;BME280;58104;52.744;15.242;2022-10-01T08:20:48;100121.01;;;18.30;49.91
70555;BME280;58104;52.744;15.242;2022-10-01T08:23:15;100121.77;;;18.18;50.58
70555;BME280;58104;52.744;15.242;2022-10-01T08:25:40;100113.59;;;18.24;49.79
70555;BME280;58104;52.744;15.242;2022-10-01T08:28:06;100112.38;;;18.27;49.89
70555;BME280;58104;52.744;15.242;2022-10-01T08:30:31;100113.57;;;18.32;48.80
70555;BME280;58104;52.744;15.242;2022-10-01T08:32:58;100107.29;;;18.00;48.35
70555;BME280;58104;52.744;15.242;2022-10-01T08:35:21;100103.80;;;17.90;49.16
70555;BME280;58104;52.744;15.242;2022-10-01T08:37:47;100104.77;;;17.58;48.91
70555;BME280;58104;52.744;15.242;2022-10-01T08:40:13;100097.92;;;17.54;48.28
70555;BME280;58104;52.744;15.242;2022-10-01T08:42:48;100092.56;;;17.40;48.19
70555;BME280;58104;52.744;15.242;2022-10-01T08:45:08;100093.13;;;17.72;47.82
70555;BME280;58104;52.744;15.242;2022-10-01T08:47:32;100088.15;;;18.04;47.18
70555;BME280;58104;52.744;15.242;2022-10-01T08:49:57;100086.48;;;18.20;46.79
70555;BME280;58104;52.744;15.242;2022-10-01T08:52:22;100086.33;;;18.24;46.45
70555;BME280;58104;52.744;15.242;2022-10-01T08:54:49;100087.87;;;18.31;46.88
70555;BME280;58104;52.744;15.242;2022-10-01T08:57:12;100082.58;;;18.07;46.65
70555;BME280;58104;52.744;15.242;2022-10-01T08:59:39;100088.77;;;17.88;47.41
70555;BME280;58104;52.744;15.242;2022-10-01T09:02:01;100089.14;;;17.59;47.30
70555;BME280;58104;52.744;15.242;2022-10-01T09:04:27;100078.53;;;17.78;46.82
70555;BME280;58104;52.744;15.242;2022-10-01T09:06:58;100072.87;;;17.89;47.02
70555;BME280;58104;52.744;15.242;2022-10-01T09:09:28;100076.30;;;18.21;46.31
70555;BME280;58104;52.744;15.242;2022-10-01T09:11:55;100071.57;;;18.36;45.63
70555;BME280;58104;52.744;15.242;2022-10-01T09:14:19;100064.81;;;18.48;45.88
70555;BME280;58104;52.744;15.242;2022-10-01T09:16:38;100062.59;;;18.38;46.24
70555;BME280;58104;52.744;15.242;2022-10-01T09:19:08;100064.41;;;18.46;45.76
70555;BME280;58104;52.744;15.242;2022-10-01T09:21:33;100061.99;;;18.37;46.26
70555;BME280;58104;52.744;15.242;2022-10-01T09:23:59;100057.55;;;18.15;46.73
70555;BME280;58104;52.744;15.242;2022-10-01T09:26:15;100051.17;;;18.31;46.81
70555;BME280;58104;52.744;15.242;2022-10-01T09:28:42;100050.40;;;18.04;46.47
70555;BME280;58104;52.744;15.242;2022-10-01T09:31:13;100042.70;;;17.75;47.80
70555;BME280;58104;52.744;15.242;2022-10-01T09:33:35;100043.77;;;18.10;46.91
70555;BME280;58104;52.744;15.242;2022-10-01T09:36:04;100034.25;;;17.82;46.50
70555;BME280;58104;52.744;15.242;2022-10-01T09:38:27;100034.28;;;17.47;48.66
70555;BME280;58104;52.744;15.242;2022-10-01T09:40:51;100028.15;;;18.06;46.98
70555;BME280;58104;52.744;15.242;2022-10-01T09:43:13;100027.86;;;17.56;47.36
70555;BME280;58104;52.744;15.242;2022-10-01T09:45:38;100028.43;;;17.53;47.58
70555;BME280;58104;52.744;15.242;2022-10-01T09:48:14;100019.46;;;17.56;46.54
70555;BME280;58104;52.744;15.242;2022-10-01T09:50:33;100024.27;;;17.65;47.13
70555;BME280;58104;52.744;15.242;2022-10-01T09:52:56;100014.79;;;17.50;49.02
70555;BME280;58104;52.744;15.242;2022-10-01T09:55:28;100014.73;;;17.57;48.32
70555;BME280;58104;52.744;15.242;2022-10-01T09:57:51;100002.66;;;17.33;48.67
70555;BME280;58104;52.744;15.242;2022-10-01T10:00:15;100000.01;;;17.68;49.57
70555;BME280;58104;52.744;15.242;2022-10-01T10:02:40;99999.86;;;17.68;47.61
70555;BME280;58104;52.744;15.242;2022-10-01T10:05:03;99998.17;;;17.43;49.17
70555;BME280;58104;52.744;15.242;2022-10-01T10:07:27;99995.14;;;17.71;48.98
70555;BME280;58104;52.744;15.242;2022-10-01T10:09:52;99993.62;;;17.57;48.12
70555;BME280;58104;52.744;15.242;2022-10-01T10:12:26;99994.28;;;17.62;48.68
70555;BME280;58104;52.744;15.242;2022-10-01T10:14:43;99988.73;;;17.40;49.68
70555;BME280;58104;52.744;15.242;2022-10-01T10:17:12;99988.13;;;17.48;49.41
70555;BME280;58104;52.744;15.242;2022-10-01T10:19:35;99980.62;;;17.94;48.37
70555;BME280;58104;52.744;15.242;2022-10-01T10:24:29;99975.85;;;17.72;47.98
70555;BME280;58104;52.744;15.242;2022-10-01T10:26:53;99978.03;;;17.62;49.02
70555;BME280;58104;52.744;15.242;2022-10-01T10:29:25;99961.10;;;17.60;47.64
70555;BME280;58104;52.744;15.242;2022-10-01T10:31:42;99952.69;;;17.80;47.47
70555;BME280;58104;52.744;15.242;2022-10-01T10:34:13;99952.07;;;18.33;47.39
70555;BME280;58104;52.744;15.242;2022-10-01T10:36:34;99956.22;;;19.10;47.34
70555;BME280;58104;52.744;15.242;2022-10-01T10:38:58;99958.82;;;19.67;46.72
70555;BME280;58104;52.744;15.242;2022-10-01T10:41:24;99955.28;;;19.99;45.05
70555;BME280;58104;52.744;15.242;2022-10-01T10:43:48;99954.26;;;19.67;45.00
70555;BME280;58104;52.744;15.242;2022-10-01T10:46:20;99945.63;;;19.80;44.60
70555;BME280;58104;52.744;15.242;2022-10-01T10:48:41;99953.30;;;20.41;44.67
70555;BME280;58104;52.744;15.242;2022-10-01T10:51:05;99945.41;;;20.65;43.93
70555;BME280;58104;52.744;15.242;2022-10-01T10:53:39;99951.87;;;19.98;43.27
70555;BME280;58104;52.744;15.242;2022-10-01T10:55:57;99940.60;;;19.70;43.81
70555;BME280;58104;52.744;15.242;2022-10-01T10:58:24;99941.12;;;19.15;44.31
70555;BME280;58104;52.744;15.242;2022-10-01T11:00:48;99943.58;;;19.81;41.95
70555;BME280;58104;52.744;15.242;2022-10-01T11:03:13;99938.15;;;19.75;41.75
70555;BME280;58104;52.744;15.242;2022-10-01T11:05:40;99935.25;;;19.84;41.74
70555;BME280;58104;52.744;15.242;2022-10-01T11:08:04;99939.76;;;19.46;42.24
70555;BME280;58104;52.744;15.242;2022-10-01T11:10:34;99927.70;;;19.11;43.46
70555;BME280;58104;52.744;15.242;2022-10-01T11:13:04;99925.12;;;19.44;43.02
70555;BME280;58104;52.744;15.242;2022-10-01T11:15:29;99921.98;;;19.57;42.96
70555;BME280;58104;52.744;15.242;2022-10-01T11:17:52;99925.26;;;19.57;42.79
70555;BME280;58104;52.744;15.242;2022-10-01T11:20:19;99921.36;;;19.89;42.65
70555;BME280;58104;52.744;15.242;2022-10-01T11:22:44;99920.56;;;19.93;42.89
70555;BME280;58104;52.744;15.242;2022-10-01T11:25:08;99923.52;;;19.47;42.18
70555;BME280;58104;52.744;15.242;2022-10-01T11:27:29;99915.36;;;20.12;40.44
70555;BME280;58104;52.744;15.242;2022-10-01T11:29:57;99908.93;;;19.29;42.49
70555;BME280;58104;52.744;15.242;2022-10-01T11:32:21;99910.52;;;19.73;41.49
70555;BME280;58104;52.744;15.242;2022-10-01T11:34:51;99909.03;;;19.02;42.82
70555;BME280;58104;52.744;15.242;2022-10-01T11:37:10;99912.71;;;19.22;43.60
70555;BME280;58104;52.744;15.242;2022-10-01T11:39:32;99930.85;;;18.95;42.01
70555;BME280;58104;52.744;15.242;2022-10-01T11:42:00;99898.84;;;19.11;42.77
70555;BME280;58104;52.744;15.242;2022-10-01T11:44:27;99893.57;;;19.04;42.55
70555;BME280;58104;52.744;15.242;2022-10-01T11:46:53;99890.99;;;19.46;42.77
70555;BME280;58104;52.744;15.242;2022-10-01T11:49:22;99879.03;;;19.12;43.05
70555;BME280;58104;52.744;15.242;2022-10-01T11:51:41;99893.42;;;18.94;43.39
70555;BME280;58104;52.744;15.242;2022-10-01T11:54:06;99881.49;;;19.33;42.10
70555;BME280;58104;52.744;15.242;2022-10-01T11:56:31;99879.57;;;19.75;41.81
70555;BME280;58104;52.744;15.242;2022-10-01T11:58:57;99881.02;;;18.93;43.76
70555;BME280;58104;52.744;15.242;2022-10-01T12:01:26;99881.18;;;18.68;44.64
70555;BME280;58104;52.744;15.242;2022-10-01T12:03:55;99889.04;;;19.40;42.33
70555;BME280;58104;52.744;15.242;2022-10-01T12:06:11;99869.71;;;19.13;43.70
70555;BME280;58104;52.744;15.242;2022-10-01T12:08:36;99865.71;;;18.76;43.97
70555;BME280;58104;52.744;15.242;2022-10-01T12:11:07;99862.18;;;18.79;44.19
70555;BME280;58104;52.744;15.242;2022-10-01T12:13:30;99865.03;;;18.82;44.37
70555;BME280;58104;52.744;15.242;2022-10-01T12:15:54;99853.98;;;18.88;44.11
70555;BME280;58104;52.744;15.242;2022-10-01T12:18:21;99851.14;;;19.08;43.56
70555;BME280;58104;52.744;15.242;2022-10-01T12:20:44;99854.02;;;18.66;44.48
70555;BME280;58104;52.744;15.242;2022-10-01T12:23:12;99846.03;;;18.93;43.73
70555;BME280;58104;52.744;15.242;2022-10-01T12:25:39;99843.78;;;19.02;43.77
70555;BME280;58104;52.744;15.242;2022-10-01T12:28:02;99843.53;;;19.25;43.19
70555;BME280;58104;52.744;15.242;2022-10-01T12:30:28;99846.98;;;18.40;45.67
70555;BME280;58104;52.744;15.242;2022-10-01T12:33:00;99845.35;;;18.61;45.16
70555;BME280;58104;52.744;15.242;2022-10-01T12:35:26;99851.37;;;19.13;44.30
70555;BME280;58104;52.744;15.242;2022-10-01T12:37:49;99854.27;;;18.94;44.56
70555;BME280;58104;52.744;15.242;2022-10-01T12:40:17;99864.14;;;18.84;44.37